Terminal Aerodrome Forecast
Issued by NWS Columbia, SC

Home | Current Version | Previous Version | Text Only | Print | Product List | Glossary On
Versions: 1 2 3 4 5 6 7 8 9 10 11 12 13 14 15 16 17 18 19 20 21 22 23 24 25 26 27 28 29 30 31 32 33 34 35 36 37 38 39 40 41 42
000
FTUS42 KCAE 210603 AAA
TAFAGS
TAF AMD
KAGS 210603Z 2106/2206 VRB03KT 5SM BR SCT250
     FM210900 VRB03KT 2SM BR BKN003
     FM211400 09005KT P6SM SCT040
     FM211900 13007KT P6SM BKN040 BKN150
     FM220200 VRB03KT P6SM SCT050=

USA.gov is the U.S. government's official web portal to all federal, state and local government web resources and services.